sensor_id;sensor_type;location;lat;lon;timestamp;pressure;altitude;pressure_sealevel;temperature;humidity
10940;BME280;5522;42.696;23.494;2022-10-16T00:00:38;53767.38;;;-139.68;100.00
10940;BME280;5522;42.696;23.494;2022-10-16T00:03:06;53763.34;;;-139.68;100.00
10940;BME280;5522;42.696;23.494;2022-10-16T00:05:38;53755.31;;;-139.68;100.00
10940;BME280;5522;42.696;23.494;2022-10-16T00:08:05;53767.38;;;-139.68;100.00
10940;BME280;5522;42.696;23.494;2022-10-16T00:10:32;53731.19;;;-139.68;100.00
10940;BME280;5522;42.696;23.494;2022-10-16T00:13:01;53749.28;;;-139.68;100.00
10940;BME280;5522;42.696;23.494;2022-10-16T00:15:27;53761.34;;;-139.68;100.00
10940;BME280;5522;42.696;23.494;2022-10-16T00:17:54;53759.31;;;-139.68;100.00
10940;BME280;5522;42.696;23.494;2022-10-16T00:22:56;53765.34;;;-139.68;100.00
10940;BME280;5522;42.696;23.494;2022-10-16T00:25:23;53751.28;;;-139.68;100.00
10940;BME280;5522;42.696;23.494;2022-10-16T00:27:50;53751.28;;;-139.68;100.00
10940;BME280;5522;42.696;23.494;2022-10-16T00:30:18;53733.19;;;-139.68;100.00
10940;BME280;5522;42.696;23.494;2022-10-16T00:32:45;53743.25;;;-139.68;100.00
10940;BME280;5522;42.696;23.494;2022-10-16T00:35:12;53717.13;;;-139.68;100.00
10940;BME280;5522;42.696;23.494;2022-10-16T00:37:39;53707.06;;;-139.68;100.00
10940;BME280;5522;42.696;23.494;2022-10-16T00:40:07;53731.19;;;-139.68;100.00
10940;BME280;5522;42.696;23.494;2022-10-16T00:42:34;53705.06;;;-139.68;100.00
10940;BME280;5522;42.696;23.494;2022-10-16T00:45:01;53682.94;;;-139.68;100.00
10940;BME280;5522;42.696;23.494;2022-10-16T00:47:30;53709.06;;;-139.68;100.00
10940;BME280;5522;42.696;23.494;2022-10-16T00:50:01;53707.06;;;-139.68;100.00
10940;BME280;5522;42.696;23.494;2022-10-16T00:52:29;53761.34;;;-139.68;100.00
10940;BME280;5522;42.696;23.494;2022-10-16T00:54:56;53688.97;;;-139.68;100.00
10940;BME280;5522;42.696;23.494;2022-10-16T00:57:23;53719.13;;;-139.68;100.00
10940;BME280;5522;42.696;23.494;2022-10-16T00:59:51;53725.16;;;-139.68;100.00
10940;BME280;5522;42.696;23.494;2022-10-16T01:02:18;53725.16;;;-139.68;100.00
10940;BME280;5522;42.696;23.494;2022-10-16T01:04:48;53695.00;;;-139.68;100.00
10940;BME280;5522;42.696;23.494;2022-10-16T01:07:29;53725.16;;;-139.68;100.00
10940;BME280;5522;42.696;23.494;2022-10-16T01:10:06;53729.16;;;-139.68;100.00
10940;BME280;5522;42.696;23.494;2022-10-16T01:12:40;53699.03;;;-139.68;100.00
10940;BME280;5522;42.696;23.494;2022-10-16T01:15:13;53751.28;;;-139.68;100.00
10940;BME280;5522;42.696;23.494;2022-10-16T01:17:45;53727.16;;;-139.68;100.00
10940;BME280;5522;42.696;23.494;2022-10-16T01:20:23;53755.31;;;-139.68;100.00
10940;BME280;5522;42.696;23.494;2022-10-16T01:23:01;53745.25;;;-139.68;100.00
10940;BME280;5522;42.696;23.494;2022-10-16T01:25:39;53701.03;;;-139.68;100.00
10940;BME280;5522;42.696;23.494;2022-10-16T01:28:13;53727.16;;;-139.68;100.00
10940;BME280;5522;42.696;23.494;2022-10-16T01:30:42;53688.97;;;-139.68;100.00
10940;BME280;5522;42.696;23.494;2022-10-16T01:33:14;53717.13;;;-139.68;100.00
10940;BME280;5522;42.696;23.494;2022-10-16T01:35:47;53695.00;;;-139.68;100.00
10940;BME280;5522;42.696;23.494;2022-10-16T01:38:17;53703.03;;;-139.68;100.00
10940;BME280;5522;42.696;23.494;2022-10-16T01:40:49;53719.13;;;-139.68;100.00
10940;BME280;5522;42.696;23.494;2022-10-16T01:43:20;53727.16;;;-139.68;100.00
10940;BME280;5522;42.696;23.494;2022-10-16T01:45:49;53735.19;;;-139.68;100.00
10940;BME280;5522;42.696;23.494;2022-10-16T01:48:18;53709.06;;;-139.68;100.00
10940;BME280;5522;42.696;23.494;2022-10-16T01:50:53;53725.16;;;-139.68;100.00
10940;BME280;5522;42.696;23.494;2022-10-16T01:53:22;53739.22;;;-139.68;100.00
10940;BME280;5522;42.696;23.494;2022-10-16T01:55:52;53735.19;;;-139.68;100.00
10940;BME280;5522;42.696;23.494;2022-10-16T01:58:23;53711.09;;;-139.68;100.00
10940;BME280;5522;42.696;23.494;2022-10-16T02:00:51;53729.16;;;-139.68;100.00
10940;BME280;5522;42.696;23.494;2022-10-16T02:03:21;53690.97;;;-139.68;100.00
10940;BME280;5522;42.696;23.494;2022-10-16T02:05:51;53751.28;;;-139.68;100.00
10940;BME280;5522;42.696;23.494;2022-10-16T02:08:19;53719.13;;;-139.68;100.00
10940;BME280;5522;42.696;23.494;2022-10-16T02:10:47;53727.16;;;-139.68;100.00
10940;BME280;5522;42.696;23.494;2022-10-16T02:13:17;53735.19;;;-139.68;100.00
10940;BME280;5522;42.696;23.494;2022-10-16T02:15:47;53699.03;;;-139.68;100.00
10940;BME280;5522;42.696;23.494;2022-10-16T02:18:14;53755.31;;;-139.68;100.00
10940;BME280;5522;42.696;23.494;2022-10-16T02:20:45;53684.94;;;-139.68;100.00
10940;BME280;5522;42.696;23.494;2022-10-16T02:23:19;53690.97;;;-139.68;100.00
10940;BME280;5522;42.696;23.494;2022-10-16T02:25:50;53670.88;;;-139.68;100.00
10940;BME280;5522;42.696;23.494;2022-10-16T02:28:23;53695.00;;;-139.68;100.00
10940;BME280;5522;42.696;23.494;2022-10-16T02:30:57;53717.13;;;-139.68;100.00
10940;BME280;5522;42.696;23.494;2022-10-16T02:33:26;53697.00;;;-139.68;100.00
10940;BME280;5522;42.696;23.494;2022-10-16T02:35:54;53684.94;;;-139.68;100.00
10940;BME280;5522;42.696;23.494;2022-10-16T02:38:23;53727.16;;;-139.68;100.00
10940;BME280;5522;42.696;23.494;2022-10-16T02:40:51;53699.03;;;-139.68;100.00
10940;BME280;5522;42.696;23.494;2022-10-16T02:43:19;53693.00;;;-139.68;100.00
10940;BME280;5522;42.696;23.494;2022-10-16T02:45:46;53703.03;;;-139.68;100.00
10940;BME280;5522;42.696;23.494;2022-10-16T02:48:14;53703.03;;;-139.68;100.00
10940;BME280;5522;42.696;23.494;2022-10-16T02:50:41;53697.00;;;-139.68;100.00
10940;BME280;5522;42.696;23.494;2022-10-16T02:53:08;53719.13;;;-139.68;100.00
10940;BME280;5522;42.696;23.494;2022-10-16T02:55:34;53719.13;;;-139.68;100.00
10940;BME280;5522;42.696;23.494;2022-10-16T02:58:01;53678.91;;;-139.68;100.00
10940;BME280;5522;42.696;23.494;2022-10-16T03:00:28;53678.91;;;-139.68;100.00
10940;BME280;5522;42.696;23.494;2022-10-16T03:02:55;53678.91;;;-139.68;100.00
10940;BME280;5522;42.696;23.494;2022-10-16T03:05:23;53715.09;;;-139.68;100.00
10940;BME280;5522;42.696;23.494;2022-10-16T03:07:50;53749.28;;;-139.68;100.00
10940;BME280;5522;42.696;23.494;2022-10-16T03:10:18;53727.16;;;-139.68;100.00
10940;BME280;5522;42.696;23.494;2022-10-16T03:12:44;53713.09;;;-139.68;100.00
10940;BME280;5522;42.696;23.494;2022-10-16T03:15:11;53721.13;;;-139.68;100.00
10940;BME280;5522;42.696;23.494;2022-10-16T03:17:38;53688.97;;;-139.68;100.00
10940;BME280;5522;42.696;23.494;2022-10-16T03:20:06;53690.97;;;-139.68;100.00
10940;BME280;5522;42.696;23.494;2022-10-16T03:22:34;53737.22;;;-139.68;100.00
10940;BME280;5522;42.696;23.494;2022-10-16T03:25:01;53735.19;;;-139.68;100.00
10940;BME280;5522;42.696;23.494;2022-10-16T03:27:28;53713.09;;;-139.68;100.00
10940;BME280;5522;42.696;23.494;2022-10-16T03:29:55;53723.13;;;-139.68;100.00
10940;BME280;5522;42.696;23.494;2022-10-16T03:32:22;53684.94;;;-139.68;100.00
10940;BME280;5522;42.696;23.494;2022-10-16T03:34:50;53751.28;;;-139.68;100.00
10940;BME280;5522;42.696;23.494;2022-10-16T03:37:18;53701.03;;;-139.68;100.00
10940;BME280;5522;42.696;23.494;2022-10-16T03:39:46;53684.94;;;-139.68;100.00
10940;BME280;5522;42.696;23.494;2022-10-16T03:42:13;53695.00;;;-139.68;100.00
10940;BME280;5522;42.696;23.494;2022-10-16T03:44:40;53697.00;;;-139.68;100.00
10940;BME280;5522;42.696;23.494;2022-10-16T03:47:06;53743.25;;;-139.68;100.00
10940;BME280;5522;42.696;23.494;2022-10-16T03:49:33;53723.13;;;-139.68;100.00
10940;BME280;5522;42.696;23.494;2022-10-16T03:52:00;53693.00;;;-139.68;100.00
10940;BME280;5522;42.696;23.494;2022-10-16T03:54:27;53690.97;;;-139.68;100.00
10940;BME280;5522;42.696;23.494;2022-10-16T03:56:55;53711.09;;;-139.68;100.00
10940;BME280;5522;42.696;23.494;2022-10-16T03:59:22;53707.06;;;-139.68;100.00
10940;BME280;5522;42.696;23.494;2022-10-16T04:01:48;53686.97;;;-139.68;100.00
10940;BME280;5522;42.696;23.494;2022-10-16T04:04:15;53711.09;;;-139.68;100.00
10940;BME280;5522;42.696;23.494;2022-10-16T04:06:42;53682.94;;;-139.68;100.00
10940;BME280;5522;42.696;23.494;2022-10-16T04:09:09;53713.09;;;-139.68;100.00
10940;BME280;5522;42.696;23.494;2022-10-16T04:11:35;53674.91;;;-139.68;100.00
10940;BME280;5522;42.696;23.494;2022-10-16T04:14:04;53693.00;;;-139.68;100.00
10940;BME280;5522;42.696;23.494;2022-10-16T04:16:31;53699.03;;;-139.68;100.00
10940;BME280;5522;42.696;23.494;2022-10-16T04:18:57;53731.19;;;-139.68;100.00
10940;BME280;5522;42.696;23.494;2022-10-16T04:21:24;53684.94;;;-139.68;100.00
10940;BME280;5522;42.696;23.494;2022-10-16T04:23:51;53723.13;;;-139.68;100.00
10940;BME280;5522;42.696;23.494;2022-10-16T04:26:18;53690.97;;;-139.68;100.00
10940;BME280;5522;42.696;23.494;2022-10-16T04:28:45;53646.75;;;-139.68;100.00
10940;BME280;5522;42.696;23.494;2022-10-16T04:31:13;53686.97;;;-139.68;100.00
10940;BME280;5522;42.696;23.494;2022-10-16T04:33:42;53646.75;;;-139.68;100.00
10940;BME280;5522;42.696;23.494;2022-10-16T04:36:09;53697.00;;;-139.68;100.00
10940;BME280;5522;42.696;23.494;2022-10-16T04:38:36;53682.94;;;-139.68;100.00
10940;BME280;5522;42.696;23.494;2022-10-16T04:41:05;53701.03;;;-139.68;100.00
10940;BME280;5522;42.696;23.494;2022-10-16T04:43:32;53705.06;;;-139.68;100.00
10940;BME280;5522;42.696;23.494;2022-10-16T04:45:59;53666.84;;;-139.68;100.00
10940;BME280;5522;42.696;23.494;2022-10-16T04:48:27;53727.16;;;-139.68;100.00
10940;BME280;5522;42.696;23.494;2022-10-16T04:50:54;53725.16;;;-139.68;100.00
10940;BME280;5522;42.696;23.494;2022-10-16T04:53:21;53646.75;;;-139.68;100.00
10940;BME280;5522;42.696;23.494;2022-10-16T04:55:49;53670.88;;;-139.68;100.00
10940;BME280;5522;42.696;23.494;2022-10-16T04:58:16;53682.94;;;-139.68;100.00
10940;BME280;5522;42.696;23.494;2022-10-16T05:00:43;53690.97;;;-139.68;100.00
10940;BME280;5522;42.696;23.494;2022-10-16T05:03:12;53723.13;;;-139.68;100.00
10940;BME280;5522;42.696;23.494;2022-10-16T05:05:43;53739.22;;;-139.68;100.00
10940;BME280;5522;42.696;23.494;2022-10-16T05:08:11;53707.06;;;-139.68;100.00
10940;BME280;5522;42.696;23.494;2022-10-16T05:10:37;53674.91;;;-139.68;100.00
10940;BME280;5522;42.696;23.494;2022-10-16T05:13:04;53729.16;;;-139.68;100.00
10940;BME280;5522;42.696;23.494;2022-10-16T05:15:31;53719.13;;;-139.68;100.00
10940;BME280;5522;42.696;23.494;2022-10-16T05:17:58;53747.25;;;-139.68;100.00
10940;BME280;5522;42.696;23.494;2022-10-16T05:20:25;53719.13;;;-139.68;100.00
10940;BME280;5522;42.696;23.494;2022-10-16T05:22:53;53753.28;;;-139.68;100.00
10940;BME280;5522;42.696;23.494;2022-10-16T05:25:20;53695.00;;;-139.68;100.00
10940;BME280;5522;42.696;23.494;2022-10-16T05:27:47;53751.28;;;-139.68;100.00
10940;BME280;5522;42.696;23.494;2022-10-16T05:30:15;53739.22;;;-139.68;98.91
10940;BME280;5522;42.696;23.494;2022-10-16T05:32:42;53759.31;;;-139.68;88.96
10940;BME280;5522;42.696;23.494;2022-10-16T05:35:12;53753.28;;;-139.68;80.71
10940;BME280;5522;42.696;23.494;2022-10-16T05:37:39;53775.41;;;-139.68;59.06
10940;BME280;5522;42.696;23.494;2022-10-16T05:40:08;53783.44;;;-139.68;54.51
10940;BME280;5522;42.696;23.494;2022-10-16T05:42:35;53767.38;;;-139.68;53.10
10940;BME280;5522;42.696;23.494;2022-10-16T05:45:03;53771.38;;;-139.68;52.27
10940;BME280;5522;42.696;23.494;2022-10-16T05:47:30;53805.56;;;-139.68;50.61
10940;BME280;5522;42.696;23.494;2022-10-16T05:49:57;53765.34;;;-139.68;48.27
10940;BME280;5522;42.696;23.494;2022-10-16T05:52:24;53759.31;;;-139.68;44.69
10940;BME280;5522;42.696;23.494;2022-10-16T05:54:50;53791.50;;;-139.68;44.48
10940;BME280;5522;42.696;23.494;2022-10-16T05:57:18;53803.56;;;-139.68;45.48
10940;BME280;5522;42.696;23.494;2022-10-16T05:59:45;53813.59;;;-139.68;43.41
10940;BME280;5522;42.696;23.494;2022-10-16T06:02:13;53829.69;;;-139.68;46.71
10940;BME280;5522;42.696;23.494;2022-10-16T06:04:40;53847.78;;;-139.68;43.81
10940;BME280;5522;42.696;23.494;2022-10-16T06:07:06;53837.72;;;-139.68;44.93
10940;BME280;5522;42.696;23.494;2022-10-16T06:09:33;53797.53;;;-139.68;46.85
10940;BME280;5522;42.696;23.494;2022-10-16T06:12:00;53787.47;;;-139.68;48.79
10940;BME280;5522;42.696;23.494;2022-10-16T06:14:28;53801.53;;;-139.68;51.90
10940;BME280;5522;42.696;23.494;2022-10-16T06:16:55;53807.56;;;-139.68;47.22
10940;BME280;5522;42.696;23.494;2022-10-16T06:19:22;53797.53;;;-139.68;46.55
10940;BME280;5522;42.696;23.494;2022-10-16T06:21:49;53813.59;;;-139.68;45.28
10940;BME280;5522;42.696;23.494;2022-10-16T06:24:16;53827.69;;;-139.68;43.18
10940;BME280;5522;42.696;23.494;2022-10-16T06:26:43;53823.66;;;-139.68;43.98
10940;BME280;5522;42.696;23.494;2022-10-16T06:29:09;53771.38;;;-139.68;44.75
10940;BME280;5522;42.696;23.494;2022-10-16T06:31:37;53847.78;;;-139.68;43.11
10940;BME280;5522;42.696;23.494;2022-10-16T06:34:04;53833.72;;;-139.68;41.63
10940;BME280;5522;42.696;23.494;2022-10-16T06:36:35;53847.78;;;-139.68;41.01
10940;BME280;5522;42.696;23.494;2022-10-16T06:39:02;53817.63;;;-139.68;42.31
10940;BME280;5522;42.696;23.494;2022-10-16T06:41:29;53819.63;;;-139.68;42.20
10940;BME280;5522;42.696;23.494;2022-10-16T06:43:55;53829.69;;;-139.68;40.79
10940;BME280;5522;42.696;23.494;2022-10-16T06:46:24;53823.66;;;-139.68;39.32
10940;BME280;5522;42.696;23.494;2022-10-16T06:48:53;53837.72;;;-139.68;41.70
10940;BME280;5522;42.696;23.494;2022-10-16T06:51:20;53811.59;;;-139.68;40.12
10940;BME280;5522;42.696;23.494;2022-10-16T06:53:49;53855.81;;;-139.68;39.46
10940;BME280;5522;42.696;23.494;2022-10-16T06:56:18;53831.69;;;-139.68;42.41
10940;BME280;5522;42.696;23.494;2022-10-16T06:58:45;53803.56;;;-139.68;40.28
10940;BME280;5522;42.696;23.494;2022-10-16T07:01:14;53863.88;;;-139.68;40.28
10940;BME280;5522;42.696;23.494;2022-10-16T07:03:42;53823.66;;;-139.68;39.91
10940;BME280;5522;42.696;23.494;2022-10-16T07:06:13;53879.94;;;-139.68;36.48
10940;BME280;5522;42.696;23.494;2022-10-16T07:08:42;53857.84;;;-139.68;37.04
10940;BME280;5522;42.696;23.494;2022-10-16T07:11:10;53881.97;;;-139.68;37.96
10940;BME280;5522;42.696;23.494;2022-10-16T07:13:39;53837.72;;;-139.68;37.60
10940;BME280;5522;42.696;23.494;2022-10-16T07:16:07;53857.84;;;-139.68;38.07
10940;BME280;5522;42.696;23.494;2022-10-16T07:18:34;53825.66;;;-139.68;37.79
10940;BME280;5522;42.696;23.494;2022-10-16T07:21:05;53885.97;;;-139.68;37.58
10940;BME280;5522;42.696;23.494;2022-10-16T07:23:35;53825.66;;;-139.68;35.34
10940;BME280;5522;42.696;23.494;2022-10-16T07:26:02;53831.69;;;-139.68;37.18
10940;BME280;5522;42.696;23.494;2022-10-16T07:28:29;53867.88;;;-139.68;34.10
10940;BME280;5522;42.696;23.494;2022-10-16T07:31:00;53863.88;;;-139.68;33.50
10940;BME280;5522;42.696;23.494;2022-10-16T07:33:27;53871.91;;;-139.68;32.96
10940;BME280;5522;42.696;23.494;2022-10-16T07:35:55;53881.97;;;-139.68;32.50
10940;BME280;5522;42.696;23.494;2022-10-16T07:38:22;53863.88;;;-139.68;32.39
10940;BME280;5522;42.696;23.494;2022-10-16T07:40:56;53855.81;;;-139.68;31.57
10940;BME280;5522;42.696;23.494;2022-10-16T07:43:22;53900.06;;;-139.68;31.26
10940;BME280;5522;42.696;23.494;2022-10-16T07:45:50;53847.78;;;-139.68;31.58
10940;BME280;5522;42.696;23.494;2022-10-16T07:48:17;53908.09;;;-139.68;31.33
10940;BME280;5522;42.696;23.494;2022-10-16T07:50:44;53877.94;;;-139.68;30.52
10940;BME280;5522;42.696;23.494;2022-10-16T07:53:11;53867.88;;;-139.68;30.85
10940;BME280;5522;42.696;23.494;2022-10-16T07:55:38;53875.94;;;-139.68;31.48
10940;BME280;5522;42.696;23.494;2022-10-16T07:58:07;53873.91;;;-139.68;30.35
10940;BME280;5522;42.696;23.494;2022-10-16T08:00:35;53875.94;;;-139.68;30.55
10940;BME280;5522;42.696;23.494;2022-10-16T08:03:03;53865.88;;;-139.68;30.47
10940;BME280;5522;42.696;23.494;2022-10-16T08:05:32;53892.00;;;-139.68;31.51
10940;BME280;5522;42.696;23.494;2022-10-16T08:07:59;53867.88;;;-139.68;30.08
10940;BME280;5522;42.696;23.494;2022-10-16T08:10:28;53888.00;;;-139.68;30.24
10940;BME280;5522;42.696;23.494;2022-10-16T08:12:55;53885.97;;;-139.68;30.66
10940;BME280;5522;42.696;23.494;2022-10-16T08:15:23;53873.91;;;-139.68;29.64
10940;BME280;5522;42.696;23.494;2022-10-16T08:17:57;53863.88;;;-139.68;29.07
10940;BME280;5522;42.696;23.494;2022-10-16T08:20:25;53900.06;;;-139.68;28.92
10940;BME280;5522;42.696;23.494;2022-10-16T08:22:52;53904.06;;;-139.68;29.13
10940;BME280;5522;42.696;23.494;2022-10-16T08:25:19;53867.88;;;-139.68;28.12
10940;BME280;5522;42.696;23.494;2022-10-16T08:27:46;53892.00;;;-139.68;28.41
10940;BME280;5522;42.696;23.494;2022-10-16T08:30:13;53875.94;;;-139.68;28.77
10940;BME280;5522;42.696;23.494;2022-10-16T08:32:41;53912.13;;;-139.68;28.62
10940;BME280;5522;42.696;23.494;2022-10-16T08:35:08;53908.09;;;-139.68;28.69
10940;BME280;5522;42.696;23.494;2022-10-16T08:37:36;53888.00;;;-139.68;29.56
10940;BME280;5522;42.696;23.494;2022-10-16T08:40:04;53888.00;;;-139.68;30.37
10940;BME280;5522;42.696;23.494;2022-10-16T08:42:50;53900.06;;;-139.68;29.02
10940;BME280;5522;42.696;23.494;2022-10-16T08:45:32;53871.91;;;-139.68;29.76
10940;BME280;5522;42.696;23.494;2022-10-16T08:48:10;53853.81;;;-139.68;29.14
10940;BME280;5522;42.696;23.494;2022-10-16T08:50:41;53883.97;;;-139.68;29.79
10940;BME280;5522;42.696;23.494;2022-10-16T08:53:13;53904.06;;;-139.68;29.90
10940;BME280;5522;42.696;23.494;2022-10-16T08:55:43;53875.94;;;-139.68;28.45
10940;BME280;5522;42.696;23.494;2022-10-16T08:58:12;53871.91;;;-139.68;29.00
10940;BME280;5522;42.696;23.494;2022-10-16T09:00:40;53873.91;;;-139.68;28.55
10940;BME280;5522;42.696;23.494;2022-10-16T09:03:16;53900.06;;;-139.68;29.58
10940;BME280;5522;42.696;23.494;2022-10-16T09:06:17;53910.09;;;-139.68;28.45
10940;BME280;5522;42.696;23.494;2022-10-16T09:08:59;53908.09;;;-139.68;28.57
10940;BME280;5522;42.696;23.494;2022-10-16T09:11:36;53871.91;;;-139.68;27.78
10940;BME280;5522;42.696;23.494;2022-10-16T09:14:17;53857.84;;;-139.68;26.04
10940;BME280;5522;42.696;23.494;2022-10-16T09:16:55;53904.06;;;-139.68;26.16
10940;BME280;5522;42.696;23.494;2022-10-16T09:19:31;53883.97;;;-139.68;27.66
10940;BME280;5522;42.696;23.494;2022-10-16T09:22:04;53849.78;;;-139.68;28.04
10940;BME280;5522;42.696;23.494;2022-10-16T09:24:37;53914.13;;;-139.68;28.25
10940;BME280;5522;42.696;23.494;2022-10-16T09:27:03;53896.03;;;-139.68;27.88
10940;BME280;5522;42.696;23.494;2022-10-16T09:29:30;53871.91;;;-139.68;26.81
10940;BME280;5522;42.696;23.494;2022-10-16T09:32:08;53922.16;;;-139.68;28.07
10940;BME280;5522;42.696;23.494;2022-10-16T09:34:42;53859.84;;;-139.68;28.95
10940;BME280;5522;42.696;23.494;2022-10-16T09:37:13;53892.00;;;-139.68;28.26
10940;BME280;5522;42.696;23.494;2022-10-16T09:39:45;53883.97;;;-139.68;27.16
10940;BME280;5522;42.696;23.494;2022-10-16T09:42:15;53896.03;;;-139.68;26.38
10940;BME280;5522;42.696;23.494;2022-10-16T09:44:42;53871.91;;;-139.68;28.11
10940;BME280;5522;42.696;23.494;2022-10-16T09:47:15;53892.00;;;-139.68;27.61
10940;BME280;5522;42.696;23.494;2022-10-16T09:49:52;53890.00;;;-139.68;28.06
10940;BME280;5522;42.696;23.494;2022-10-16T09:52:20;53890.00;;;-139.68;28.13
10940;BME280;5522;42.696;23.494;2022-10-16T09:54:51;53871.91;;;-139.68;26.86
10940;BME280;5522;42.696;23.494;2022-10-16T09:57:19;53896.03;;;-139.68;27.91
10940;BME280;5522;42.696;23.494;2022-10-16T09:59:47;53890.00;;;-139.68;26.78
10940;BME280;5522;42.696;23.494;2022-10-16T10:02:16;53883.97;;;-139.68;26.84
10940;BME280;5522;42.696;23.494;2022-10-16T10:04:48;53906.06;;;-139.68;26.73
10940;BME280;5522;42.696;23.494;2022-10-16T10:07:21;53908.09;;;-139.68;26.35
10940;BME280;5522;42.696;23.494;2022-10-16T10:09:49;53898.03;;;-139.68;25.63
10940;BME280;5522;42.696;23.494;2022-10-16T10:12:19;53883.97;;;-139.68;25.65
10940;BME280;5522;42.696;23.494;2022-10-16T10:14:48;53896.03;;;-139.68;26.78
10940;BME280;5522;42.696;23.494;2022-10-16T10:17:17;53896.03;;;-139.68;26.96
10940;BME280;5522;42.696;23.494;2022-10-16T10:19:50;53892.00;;;-139.68;25.26
10940;BME280;5522;42.696;23.494;2022-10-16T10:22:26;53877.94;;;-139.68;25.41
10940;BME280;5522;42.696;23.494;2022-10-16T10:25:00;53855.81;;;-139.68;25.27
10940;BME280;5522;42.696;23.494;2022-10-16T10:27:41;53879.94;;;-139.68;24.79
10940;BME280;5522;42.696;23.494;2022-10-16T10:30:15;53885.97;;;-139.68;23.96
10940;BME280;5522;42.696;23.494;2022-10-16T10:32:53;53865.88;;;-139.68;24.68
10940;BME280;5522;42.696;23.494;2022-10-16T10:35:23;53888.00;;;-139.68;23.49
10940;BME280;5522;42.696;23.494;2022-10-16T10:38:05;53871.91;;;-139.68;24.29
10940;BME280;5522;42.696;23.494;2022-10-16T10:40:45;53871.91;;;-139.68;23.61
10940;BME280;5522;42.696;23.494;2022-10-16T10:43:25;53883.97;;;-139.68;25.08
10940;BME280;5522;42.696;23.494;2022-10-16T10:46:00;53904.06;;;-139.68;24.93
10940;BME280;5522;42.696;23.494;2022-10-16T10:48:54;53859.84;;;-139.68;25.94
10940;BME280;5522;42.696;23.494;2022-10-16T10:51:28;53918.16;;;-139.68;26.86
10940;BME280;5522;42.696;23.494;2022-10-16T10:54:10;53906.06;;;-139.68;27.66
10940;BME280;5522;42.696;23.494;2022-10-16T10:56:45;53881.97;;;-139.68;28.85
10940;BME280;5522;42.696;23.494;2022-10-16T10:59:28;53900.06;;;-139.68;29.58
10940;BME280;5522;42.696;23.494;2022-10-16T11:02:01;53859.84;;;-139.68;30.47
10940;BME280;5522;42.696;23.494;2022-10-16T11:04:50;53885.97;;;-139.68;32.54
10940;BME280;5522;42.696;23.494;2022-10-16T11:07:26;53885.97;;;-139.68;32.70
10940;BME280;5522;42.696;23.494;2022-10-16T11:09:59;53900.06;;;-139.68;34.26
10940;BME280;5522;42.696;23.494;2022-10-16T11:12:31;53879.94;;;-139.68;34.20
10940;BME280;5522;42.696;23.494;2022-10-16T11:15:02;53863.88;;;-139.68;35.36
10940;BME280;5522;42.696;23.494;2022-10-16T11:17:35;53916.13;;;-139.68;34.60
10940;BME280;5522;42.696;23.494;2022-10-16T11:20:13;53885.97;;;-139.68;36.29
10940;BME280;5522;42.696;23.494;2022-10-16T11:22:44;53902.06;;;-139.68;37.07
10940;BME280;5522;42.696;23.494;2022-10-16T11:25:20;53888.00;;;-139.68;35.83
10940;BME280;5522;42.696;23.494;2022-10-16T11:27:52;53875.94;;;-139.68;35.71
10940;BME280;5522;42.696;23.494;2022-10-16T11:30:24;53859.84;;;-139.68;36.67
10940;BME280;5522;42.696;23.494;2022-10-16T11:33:02;53867.88;;;-139.68;37.62
10940;BME280;5522;42.696;23.494;2022-10-16T11:35:39;53885.97;;;-139.68;38.25
10940;BME280;5522;42.696;23.494;2022-10-16T11:38:14;53865.88;;;-139.68;38.72
10940;BME280;5522;42.696;23.494;2022-10-16T11:40:46;53865.88;;;-139.68;38.02
10940;BME280;5522;42.696;23.494;2022-10-16T11:43:17;53883.97;;;-139.68;38.74
10940;BME280;5522;42.696;23.494;2022-10-16T11:45:49;53871.91;;;-139.68;36.33
10940;BME280;5522;42.696;23.494;2022-10-16T11:48:24;53873.91;;;-139.68;36.54
10940;BME280;5522;42.696;23.494;2022-10-16T11:50:54;53890.00;;;-139.68;36.30
10940;BME280;5522;42.696;23.494;2022-10-16T11:53:32;53855.81;;;-139.68;37.67
10940;BME280;5522;42.696;23.494;2022-10-16T11:56:04;53849.78;;;-139.68;37.04
10940;BME280;5522;42.696;23.494;2022-10-16T11:58:35;53930.22;;;-139.68;36.93
10940;BME280;5522;42.696;23.494;2022-10-16T12:01:15;53859.84;;;-139.68;36.48
10940;BME280;5522;42.696;23.494;2022-10-16T12:03:47;53853.81;;;-139.68;37.21
10940;BME280;5522;42.696;23.494;2022-10-16T12:06:25;53873.91;;;-139.68;35.68
10940;BME280;5522;42.696;23.494;2022-10-16T12:08:54;53898.03;;;-139.68;37.29
10940;BME280;5522;42.696;23.494;2022-10-16T12:11:34;53867.88;;;-139.68;36.85
10940;BME280;5522;42.696;23.494;2022-10-16T12:14:20;53843.75;;;-139.68;36.81
10940;BME280;5522;42.696;23.494;2022-10-16T12:16:52;53873.91;;;-139.68;36.51
10940;BME280;5522;42.696;23.494;2022-10-16T12:19:21;53863.88;;;-139.68;36.67
10940;BME280;5522;42.696;23.494;2022-10-16T12:21:49;53871.91;;;-139.68;36.88
10940;BME280;5522;42.696;23.494;2022-10-16T12:24:22;53904.06;;;-139.68;35.91
10940;BME280;5522;42.696;23.494;2022-10-16T12:26:55;53855.81;;;-139.68;36.83
10940;BME280;5522;42.696;23.494;2022-10-16T12:29:31;53883.97;;;-139.68;38.59
10940;BME280;5522;42.696;23.494;2022-10-16T12:31:59;53871.91;;;-139.68;37.98
10940;BME280;5522;42.696;23.494;2022-10-16T12:34:28;53861.84;;;-139.68;37.45
10940;BME280;5522;42.696;23.494;2022-10-16T12:36:56;53859.84;;;-139.68;38.14
10940;BME280;5522;42.696;23.494;2022-10-16T12:39:35;53908.09;;;-139.68;35.68
10940;BME280;5522;42.696;23.494;2022-10-16T12:42:17;53877.94;;;-139.68;36.15
10940;BME280;5522;42.696;23.494;2022-10-16T12:44:45;53900.06;;;-139.68;35.63
10940;BME280;5522;42.696;23.494;2022-10-16T12:47:20;53910.09;;;-139.68;35.06
10940;BME280;5522;42.696;23.494;2022-10-16T12:49:50;53861.84;;;-139.68;35.98
10940;BME280;5522;42.696;23.494;2022-10-16T12:52:28;53871.91;;;-139.68;35.43